Time;durP1;ratioP1;P1;durP2;ratioP2;P2;SDS_P1;SDS_P2;PMS_P1;PMS_P2;Temp;Humidity;BMP_temperature;BMP_pressure;BME280_temperature;BME280_humidity;BME280_pressure;Samples;Min_cycle;Max_cycle;Signal;HPM_P1;HPM_P2
2021/03/24 00:02:22;;;;;;;;;;;;;;;28.28;19.71;100204.72;5078620;28;868;-36
2021/03/24 00:04:48;;;;;;;;;;;;;;;28.30;20.12;100207.22;5079358;28;807;-36
2021/03/24 00:07:13;;;;;;;;;;;;;;;28.58;19.56;100217.09;5078885;28;1897;-37
2021/03/24 00:09:38;;;;;;;;;;;;;;;28.68;19.54;100212.09;5084855;28;1040;-42
2021/03/24 00:12:04;;;;;;;;;;;;;;;28.59;19.73;100232.28;5098901;28;833;-36
2021/03/24 00:14:29;;;;;;;;;;;;;;;28.55;19.49;100220.19;5093888;28;938;-37
2021/03/24 00:16:55;;;;;;;;;;;;;;;28.76;19.46;100221.06;5078441;28;831;-36
2021/03/24 00:19:20;;;;;;;;;;;;;;;28.40;19.48;100229.34;5078494;28;748;-46
2021/03/24 00:21:45;;;;;;;;;;;;;;;28.17;20.14;100219.69;5078936;28;795;-36
2021/03/24 00:24:10;;;;;;;;;;;;;;;28.60;19.58;100223.97;5079172;28;790;-41
2021/03/24 00:26:36;;;;;;;;;;;;;;;28.70;19.47;100220.84;5078238;28;1968;-36
2021/03/24 00:29:01;;;;;;;;;;;;;;;28.61;19.62;100238.34;5079434;28;982;-48
2021/03/24 00:31:26;;;;;;;;;;;;;;;28.20;19.90;100235.50;5099081;28;1095;-38
2021/03/24 00:33:52;;;;;;;;;;;;;;;28.66;19.58;100238.53;5098379;28;974;-49
2021/03/24 00:36:17;;;;;;;;;;;;;;;28.83;19.38;100238.13;5098950;28;763;-38
2021/03/24 00:38:43;;;;;;;;;;;;;;;28.33;19.88;100228.47;5099124;28;822;-51
2021/03/24 00:41:08;;;;;;;;;;;;;;;28.22;20.03;100224.47;5098531;28;862;-38
2021/03/24 00:43:33;;;;;;;;;;;;;;;28.09;20.12;100238.78;5099052;28;732;-40
2021/03/24 00:45:59;;;;;;;;;;;;;;;28.66;19.55;100241.25;5081311;28;1967;-37
2021/03/24 00:48:28;;;;;;;;;;;;;;;28.70;19.62;100247.09;5084705;28;863;-49
2021/03/24 00:50:54;;;;;;;;;;;;;;;28.90;19.31;100248.97;5098661;28;823;-38
2021/03/24 00:53:19;;;;;;;;;;;;;;;28.93;19.21;100251.25;5098541;28;811;-37
2021/03/24 00:55:45;;;;;;;;;;;;;;;28.92;19.04;100249.59;5097977;28;791;-37
2021/03/24 00:58:11;;;;;;;;;;;;;;;28.58;19.59;100257.66;5098443;28;816;-44
2021/03/24 01:00:36;;;;;;;;;;;;;;;28.59;19.61;100257.47;5084301;28;943;-38
2021/03/24 01:03:02;;;;;;;;;;;;;;;28.68;19.54;100255.41;5077618;28;823;-36
2021/03/24 01:05:27;;;;;;;;;;;;;;;28.64;19.26;100264.16;5078092;28;804;-36
2021/03/24 01:07:54;;;;;;;;;;;;;;;28.61;19.47;100257.28;5077892;28;1898;-36
2021/03/24 01:10:21;;;;;;;;;;;;;;;28.56;19.78;100266.00;5100761;28;1079;-37
2021/03/24 01:12:46;;;;;;;;;;;;;;;28.81;19.43;100270.00;5118651;28;854;-37
2021/03/24 01:15:12;;;;;;;;;;;;;;;28.93;19.18;100264.78;5095073;28;1080;-36
2021/03/24 01:17:37;;;;;;;;;;;;;;;28.53;19.22;100262.88;5077662;28;740;-38
2021/03/24 01:20:03;;;;;;;;;;;;;;;28.39;19.78;100264.72;5078024;28;768;-36
2021/03/24 01:22:28;;;;;;;;;;;;;;;28.58;19.37;100265.78;5077990;28;846;-37
2021/03/24 01:24:54;;;;;;;;;;;;;;;28.60;19.24;100263.72;5076885;28;1056;-37
2021/03/24 01:27:19;;;;;;;;;;;;;;;28.56;19.29;100263.28;5076811;28;1906;-37
2021/03/24 01:29:44;;;;;;;;;;;;;;;28.44;19.48;100265.78;5084169;28;951;-40
2021/03/24 01:32:10;;;;;;;;;;;;;;;28.64;19.32;100270.41;5097302;28;1128;-37
2021/03/24 01:34:35;;;;;;;;;;;;;;;28.59;19.22;100267.47;5097730;28;771;-38
2021/03/24 01:37:00;;;;;;;;;;;;;;;28.42;19.25;100273.25;5085434;28;831;-39
2021/03/24 01:39:26;;;;;;;;;;;;;;;28.38;19.74;100269.28;5076725;28;867;-37
2021/03/24 01:41:51;;;;;;;;;;;;;;;28.56;19.56;100274.13;5077232;28;875;-42
2021/03/24 01:44:16;;;;;;;;;;;;;;;28.66;19.12;100270.19;5079557;28;943;-40
2021/03/24 01:46:43;;;;;;;;;;;;;;;28.77;19.16;100266.03;5078397;28;1905;-46
2021/03/24 01:49:18;;;;;;;;;;;;;;;28.90;19.10;100267.91;5097489;28;796;-37
2021/03/24 01:52:06;;;;;;;;;;;;;;;28.88;19.02;100264.59;5097686;28;786;-37
2021/03/24 01:54:35;;;;;;;;;;;;;;;28.41;19.54;100251.81;5086200;28;1132;-38
2021/03/24 01:57:04;;;;;;;;;;;;;;;28.16;19.58;100255.84;5097149;28;725;-38
2021/03/24 01:59:29;;;;;;;;;;;;;;;28.40;19.65;100259.09;5092344;28;998;-37
2021/03/24 02:01:55;;;;;;;;;;;;;;;28.55;19.25;100261.63;5076552;28;751;-37
2021/03/24 02:04:20;;;;;;;;;;;;;;;28.64;19.13;100256.88;5076675;28;776;-37
2021/03/24 02:06:46;;;;;;;;;;;;;;;28.21;19.73;100264.19;5076918;28;1898;-38
2021/03/24 02:09:13;;;;;;;;;;;;;;;28.63;19.37;100262.50;5080473;28;1111;-38
2021/03/24 02:11:41;;;;;;;;;;;;;;;28.82;19.11;100258.97;5098158;28;851;-38
2021/03/24 02:14:13;;;;;;;;;;;;;;;28.38;19.06;100261.16;5095858;28;946;-43
2021/03/24 02:16:40;;;;;;;;;;;;;;;28.28;19.44;100253.41;5058672;28;775;-37
2021/03/24 02:19:09;;;;;;;;;;;;;;;28.59;19.13;100259.34;5058337;28;879;-37
2021/03/24 02:21:35;;;;;;;;;;;;;;;28.64;18.69;100258.72;5059008;28;867;-38
2021/03/24 02:24:13;;;;;;;;;;;;;;;28.60;18.93;100264.56;5058441;28;804;-37
2021/03/24 02:26:43;;;;;;;;;;;;;;;28.17;19.63;100260.25;5076556;28;1906;-37
2021/03/24 02:29:08;;;;;;;;;;;;;;;28.61;19.16;100268.09;5060435;28;919;-38
2021/03/24 02:31:34;;;;;;;;;;;;;;;28.78;18.82;100271.25;5096047;28;1375;-38
2021/03/24 02:34:00;;;;;;;;;;;;;;;28.35;19.13;100265.13;5078624;28;772;-38
2021/03/24 02:36:25;;;;;;;;;;;;;;;28.15;19.39;100265.00;5097144;28;894;-37
2021/03/24 02:38:51;;;;;;;;;;;;;;;28.51;19.47;100268.47;5096142;28;847;-38
2021/03/24 02:41:16;;;;;;;;;;;;;;;28.55;19.19;100263.50;5078726;28;731;-49
2021/03/24 02:43:41;;;;;;;;;;;;;;;28.58;18.98;100261.22;5096781;28;796;-38
2021/03/24 02:46:07;;;;;;;;;;;;;;;28.66;18.89;100265.59;5059642;28;1972;-37
2021/03/24 02:48:33;;;;;;;;;;;;;;;28.81;18.74;100267.31;5076466;28;807;-47
2021/03/24 02:50:59;;;;;;;;;;;;;;;28.88;18.59;100265.41;5058500;28;772;-37
2021/03/24 02:53:24;;;;;;;;;;;;;;;28.88;18.58;100264.59;5075973;28;806;-37
2021/03/24 02:55:50;;;;;;;;;;;;;;;29.02;18.50;100254.63;5076927;28;716;-48
2021/03/24 02:58:15;;;;;;;;;;;;;;;28.94;18.21;100264.63;5058613;28;866;-39
2021/03/24 03:00:40;;;;;;;;;;;;;;;29.04;18.20;100260.69;5075644;28;998;-44
2021/03/24 03:03:13;;;;;;;;;;;;;;;29.01;18.36;100252.97;5076381;28;847;-49
2021/03/24 03:05:39;;;;;;;;;;;;;;;27.73;19.27;100254.19;5058361;28;763;-37
2021/03/24 03:08:05;;;;;;;;;;;;;;;28.06;19.02;100245.41;5057783;28;1974;-40
2021/03/24 03:10:36;;;;;;;;;;;;;;;28.49;18.83;100254.34;5071638;28;1116;-38
2021/03/24 03:13:01;;;;;;;;;;;;;;;28.54;18.42;100257.28;5096593;28;724;-49
2021/03/24 03:15:28;;;;;;;;;;;;;;;28.51;18.60;100262.25;5082829;28;994;-37
2021/03/24 03:17:58;;;;;;;;;;;;;;;28.19;18.82;100263.59;5076197;28;752;-43
2021/03/24 03:20:27;;;;;;;;;;;;;;;28.32;18.76;100264.66;5057977;28;851;-37
2021/03/24 03:22:56;;;;;;;;;;;;;;;28.42;18.90;100269.72;5057991;28;910;-37
2021/03/24 03:25:24;;;;;;;;;;;;;;;28.45;18.70;100280.97;5058296;28;812;-39
2021/03/24 03:27:50;;;;;;;;;;;;;;;28.38;18.71;100282.00;5058130;28;1961;-37
2021/03/24 03:30:15;;;;;;;;;;;;;;;28.40;18.49;100291.56;5068993;28;979;-37
2021/03/24 03:32:41;;;;;;;;;;;;;;;28.58;18.61;100292.84;5077914;28;1140;-42
2021/03/24 03:35:09;;;;;;;;;;;;;;;28.55;18.71;100299.50;5096354;28;748;-36
2021/03/24 03:37:34;;;;;;;;;;;;;;;27.89;18.53;100307.13;5095818;28;740;-35
2021/03/24 03:39:59;;;;;;;;;;;;;;;27.34;19.65;100310.44;5096206;28;803;-36
2021/03/24 03:42:25;;;;;;;;;;;;;;;27.64;19.53;100318.38;5096017;28;727;-36
2021/03/24 03:44:51;;;;;;;;;;;;;;;28.34;18.83;100308.59;5069937;28;1053;-36
2021/03/24 03:47:16;;;;;;;;;;;;;;;28.60;18.50;100320.53;5058069;28;1906;-37
2021/03/24 03:49:41;;;;;;;;;;;;;;;28.57;18.77;100319.09;5057472;28;1075;-37
2021/03/24 03:52:06;;;;;;;;;;;;;;;28.48;18.65;100331.13;5061275;28;811;-37
2021/03/24 03:54:43;;;;;;;;;;;;;;;28.54;18.57;100333.03;5079486;28;800;-37
2021/03/24 03:57:27;;;;;;;;;;;;;;;28.70;18.39;100350.78;5061384;28;749;-39
2021/03/24 04:00:01;;;;;;;;;;;;;;;28.34;18.83;100350.00;5078881;28;935;-37
2021/03/24 04:02:47;;;;;;;;;;;;;;;27.89;19.39;100355.78;5079131;28;752;-38
2021/03/24 04:05:13;;;;;;;;;;;;;;;27.21;20.41;100363.28;5068055;28;1379;-37
2021/03/24 04:07:40;;;;;;;;;;;;;;;27.93;19.21;100370.56;5060653;28;1971;-38
2021/03/24 04:10:06;;;;;;;;;;;;;;;27.81;19.41;100366.75;5053318;28;1184;-38
2021/03/24 04:12:32;;;;;;;;;;;;;;;27.87;19.54;100371.34;5099372;28;810;-37
2021/03/24 04:14:57;;;;;;;;;;;;;;;28.23;19.33;100374.88;5079892;28;915;-37
2021/03/24 04:17:27;;;;;;;;;;;;;;;27.87;19.42;100377.59;5080510;28;819;-37
2021/03/24 04:19:53;;;;;;;;;;;;;;;27.27;20.68;100394.09;5064734;28;950;-36
2021/03/24 04:22:18;;;;;;;;;;;;;;;27.74;20.23;100389.13;5076986;28;855;-34
2021/03/24 04:24:45;;;;;;;;;;;;;;;28.25;19.66;100383.63;5078555;28;775;-44
2021/03/24 04:27:10;;;;;;;;;;;;;;;28.38;19.44;100387.50;5077544;28;1978;-44
2021/03/24 04:29:45;;;;;;;;;;;;;;;28.63;19.04;100398.63;5080114;28;935;-44
2021/03/24 04:32:10;;;;;;;;;;;;;;;28.60;18.80;100407.13;5080727;28;1083;-43
2021/03/24 04:34:36;;;;;;;;;;;;;;;28.62;18.86;100406.94;5099160;28;748;-43
2021/03/24 04:37:03;;;;;;;;;;;;;;;28.75;18.84;100409.69;5098528;28;808;-44
2021/03/24 04:39:31;;;;;;;;;;;;;;;25.82;15.07;100406.09;5080289;28;831;-42
2021/03/24 04:41:56;;;;;;;;;;;;;;;19.76;19.32;100408.72;5080696;28;829;-47
2021/03/24 04:44:25;;;;;;;;;;;;;;;19.76;21.23;100408.72;5075988;28;991;-47
2021/03/24 04:46:51;;;;;;;;;;;;;;;20.16;20.22;100415.72;5060364;28;1913;-40
2021/03/24 04:49:19;;;;;;;;;;;;;;;20.28;19.76;100408.38;5074083;28;817;-37
2021/03/24 04:51:44;;;;;;;;;;;;;;;20.23;19.31;100413.31;5080012;28;748;-36
2021/03/24 04:54:21;;;;;;;;;;;;;;;19.94;19.45;100420.34;5098421;28;755;-39
2021/03/24 04:56:47;;;;;;;;;;;;;;;20.41;19.35;100423.22;5079255;28;1497;-38
2021/03/24 04:59:17;;;;;;;;;;;;;;;21.24;18.30;100431.44;5079410;28;875;-42
2021/03/24 05:01:43;;;;;;;;;;;;;;;21.40;19.07;100438.81;5092552;28;740;-43
2021/03/24 05:04:12;;;;;;;;;;;;;;;21.14;18.73;100437.69;5080529;28;787;-42
2021/03/24 05:06:43;;;;;;;;;;;;;;;20.91;18.08;100439.91;5080039;28;1963;-42
2021/03/24 05:09:08;;;;;;;;;;;;;;;21.17;17.86;100440.06;5077448;28;1030;-45
2021/03/24 05:11:42;;;;;;;;;;;;;;;21.85;18.17;100445.09;5118517;28;871;-44
2021/03/24 05:14:07;;;;;;;;;;;;;;;23.17;19.12;100443.28;5080132;28;868;-44
2021/03/24 05:16:34;;;;;;;;;;;;;;;24.04;18.43;100441.19;5079714;28;1288;-39
2021/03/24 05:18:59;;;;;;;;;;;;;;;25.27;17.52;100442.84;5079486;28;823;-42
2021/03/24 05:21:43;;;;;;;;;;;;;;;25.70;16.92;100444.25;5097641;28;783;-41
2021/03/24 05:24:09;;;;;;;;;;;;;;;25.91;16.63;100438.16;5097931;28;854;-34
2021/03/24 05:26:38;;;;;;;;;;;;;;;26.12;16.62;100451.97;5079752;28;1971;-42
2021/03/24 05:29:04;;;;;;;;;;;;;;;26.15;16.73;100451.59;5096480;28;1057;-41
2021/03/24 05:31:32;;;;;;;;;;;;;;;26.21;16.58;100450.84;5059523;28;1235;-45
2021/03/24 05:34:11;;;;;;;;;;;;;;;26.39;16.21;100452.41;5059328;28;836;-37
2021/03/24 05:36:40;;;;;;;;;;;;;;;26.37;16.01;100462.53;5059844;28;799;-42
2021/03/24 05:39:09;;;;;;;;;;;;;;;26.44;16.08;100459.94;5059522;28;783;-37
2021/03/24 05:41:34;;;;;;;;;;;;;;;26.49;15.91;100468.31;5077821;28;767;-37
2021/03/24 05:44:18;;;;;;;;;;;;;;;26.68;16.33;100472.28;5076727;28;927;-38
2021/03/24 05:46:43;;;;;;;;;;;;;;;26.93;16.51;100479.25;5077055;28;1925;-37
2021/03/24 05:49:27;;;;;;;;;;;;;;;26.97;17.01;100480.56;5077336;28;799;-43
2021/03/24 05:52:05;;;;;;;;;;;;;;;27.05;17.17;100480.47;5076806;28;811;-34
2021/03/24 05:54:45;;;;;;;;;;;;;;;27.29;16.97;100489.28;5077044;28;779;-35
2021/03/24 05:57:23;;;;;;;;;;;;;;;27.29;16.82;100481.19;5059364;28;855;-42
2021/03/24 05:59:52;;;;;;;;;;;;;;;27.58;16.44;100478.53;5083720;28;1007;-42
2021/03/24 06:02:22;;;;;;;;;;;;;;;27.59;16.87;100482.94;5079407;28;791;-38
2021/03/24 06:04:51;;;;;;;;;;;;;;;27.75;16.99;100484.56;5079614;28;775;-34
2021/03/24 06:07:20;;;;;;;;;;;;;;;26.78;18.07;100480.94;5078649;28;1973;-35
2021/03/24 06:09:45;;;;;;;;;;;;;;;26.31;18.96;100482.13;5090620;28;1068;-42
2021/03/24 06:12:30;;;;;;;;;;;;;;;26.20;16.87;100478.00;5076526;28;839;-45
2021/03/24 06:14:56;;;;;;;;;;;;;;;24.38;17.50;100476.97;5073782;28;1581;-37
2021/03/24 06:17:33;;;;;;;;;;;;;;;24.34;16.98;100481.84;5097458;28;802;-40
2021/03/24 06:20:01;;;;;;;;;;;;;;;23.55;16.84;100480.50;5096701;28;776;-40
2021/03/24 06:22:36;;;;;;;;;;;;;;;23.84;16.68;100486.38;5097118;28;767;-39
2021/03/24 06:25:07;;;;;;;;;;;;;;;22.96;17.92;100492.88;5078265;28;1485;-40
2021/03/24 06:27:50;;;;;;;;;;;;;;;24.12;17.05;100483.38;5096192;28;1913;-36
2021/03/24 06:30:16;;;;;;;;;;;;;;;24.26;16.45;100471.09;5085560;28;1074;-35
2021/03/24 06:32:50;;;;;;;;;;;;;;;24.19;16.63;100483.56;5076589;28;1305;-37
2021/03/24 06:35:21;;;;;;;;;;;;;;;24.24;16.62;100478.50;5076441;28;729;-44
2021/03/24 06:37:52;;;;;;;;;;;;;;;24.19;16.63;100476.31;5059187;28;824;-41
2021/03/24 06:40:20;;;;;;;;;;;;;;;23.40;16.67;100477.59;5076618;28;795;-35
2021/03/24 06:43:06;;;;;;;;;;;;;;;22.53;18.00;100486.56;5076122;28;805;-39
2021/03/24 06:45:37;;;;;;;;;;;;;;;23.91;16.16;100478.47;5088929;28;1380;-38
2021/03/24 06:48:21;;;;;;;;;;;;;;;23.91;15.73;100473.09;5096591;28;1973;-40
2021/03/24 06:51:00;;;;;;;;;;;;;;;24.18;15.76;100479.19;5096048;28;792;-39
2021/03/24 06:53:44;;;;;;;;;;;;;;;24.11;16.01;100473.59;5096373;28;862;-37
2021/03/24 06:56:16;;;;;;;;;;;;;;;24.43;15.59;100473.75;5096176;28;1175;-39
2021/03/24 06:58:52;;;;;;;;;;;;;;;24.13;15.90;100481.50;5096445;28;831;-41
2021/03/24 07:01:33;;;;;;;;;;;;;;;24.72;16.39;100476.88;5058783;28;971;-40
2021/03/24 07:04:10;;;;;;;;;;;;;;;25.10;17.95;100485.16;5076135;28;831;-42
2021/03/24 07:06:42;;;;;;;;;;;;;;;26.18;17.70;100483.56;5058856;28;1898;-44
2021/03/24 07:09:20;;;;;;;;;;;;;;;26.19;17.82;100485.28;5078957;28;1139;-42
2021/03/24 07:11:45;;;;;;;;;;;;;;;26.89;17.35;100489.59;5117169;28;743;-42
2021/03/24 07:14:29;;;;;;;;;;;;;;;27.04;17.24;100488.78;5112589;28;946;-48
2021/03/24 07:17:04;;;;;;;;;;;;;;;27.12;17.80;100499.47;5076159;28;724;-44
2021/03/24 07:19:29;;;;;;;;;;;;;;;26.06;18.95;100488.56;5057277;28;818;-46
2021/03/24 07:22:07;;;;;;;;;;;;;;;25.74;19.54;100494.03;5076392;28;850;-43
2021/03/24 07:24:32;;;;;;;;;;;;;;;26.65;18.91;100505.06;5075991;28;859;-41
2021/03/24 07:26:58;;;;;;;;;;;;;;;27.17;18.35;100509.69;5079107;28;1959;-41
2021/03/24 07:29:36;;;;;;;;;;;;;;;26.44;17.08;100509.34;5083639;28;947;-40
2021/03/24 07:32:30;;;;;;;;;;;;;;;25.15;16.92;100512.41;5099835;28;1566;-37
2021/03/24 07:34:56;;;;;;;;;;;;;;;23.13;16.33;100509.03;5027345;28;1389;-40
2021/03/24 07:37:24;;;;;;;;;;;;;;;24.05;16.54;100522.66;5100076;28;736;-39
2021/03/24 07:40:08;;;;;;;;;;;;;;;24.46;16.15;100521.81;5099489;28;818;-37
2021/03/24 07:42:43;;;;;;;;;;;;;;;24.75;16.55;100528.50;5099819;28;744;-39
2021/03/24 07:45:12;;;;;;;;;;;;;;;24.18;16.46;100532.94;5089236;28;946;-40
2021/03/24 07:47:46;;;;;;;;;;;;;;;24.50;16.31;100533.06;5079721;28;2033;-38
2021/03/24 07:50:12;;;;;;;;;;;;;;;25.14;16.77;100534.09;5097110;28;820;-37
2021/03/24 07:52:55;;;;;;;;;;;;;;;24.97;16.16;100536.00;5120053;28;759;-38
2021/03/24 07:55:25;;;;;;;;;;;;;;;24.58;16.51;100539.28;5120078;28;827;-38
2021/03/24 07:58:10;;;;;;;;;;;;;;;25.10;17.01;100533.59;5101205;28;842;-36
2021/03/24 08:00:52;;;;;;;;;;;;;;;25.15;17.72;100539.31;5092197;28;1005;-38
2021/03/24 08:03:18;;;;;;;;;;;;;;;25.71;17.14;100544.78;5061557;28;740;-45
2021/03/24 08:05:43;;;;;;;;;;;;;;;26.07;17.30;100535.25;5079175;28;815;-50
2021/03/24 08:08:13;;;;;;;;;;;;;;;26.07;16.71;100546.88;5078881;28;1898;-45
2021/03/24 08:10:38;;;;;;;;;;;;;;;25.99;16.03;100553.13;5089125;28;1136;-42
2021/03/24 08:13:18;;;;;;;;;;;;;;;26.02;17.11;100551.97;5119744;28;755;-42
2021/03/24 08:16:02;;;;;;;;;;;;;;;26.08;17.18;100551.22;5089304;28;945;-37
2021/03/24 08:18:43;;;;;;;;;;;;;;;26.39;16.92;100557.59;5078801;28;925;-36
2021/03/24 08:21:14;;;;;;;;;;;;;;;26.19;17.18;100559.91;5078947;28;771;-38
2021/03/24 08:23:39;;;;;;;;;;;;;;;26.52;17.21;100552.41;5078892;28;859;-42
2021/03/24 08:26:11;;;;;;;;;;;;;;;26.38;16.56;100572.91;5079264;28;1897;-38
2021/03/24 08:28:45;;;;;;;;;;;;;;;26.06;16.81;100568.63;5099251;28;834;-38
2021/03/24 08:31:20;;;;;;;;;;;;;;;26.22;17.06;100571.19;5063615;28;1293;-43
2021/03/24 08:34:12;;;;;;;;;;;;;;;26.10;17.19;100572.63;5078427;28;734;-49
2021/03/24 08:36:37;;;;;;;;;;;;;;;26.12;16.87;100566.03;5074124;28;1340;-36
2021/03/24 08:39:21;;;;;;;;;;;;;;;25.86;17.10;100578.00;5078663;28;824;-37
2021/03/24 08:42:09;;;;;;;;;;;;;;;26.15;16.90;100587.25;5078169;28;811;-41
2021/03/24 08:44:37;;;;;;;;;;;;;;;26.24;16.62;100590.69;5060440;28;976;-41
2021/03/24 08:47:13;;;;;;;;;;;;;;;26.02;16.56;100582.47;5078356;28;1910;-37
2021/03/24 08:49:42;;;;;;;;;;;;;;;26.31;16.52;100569.22;5060506;28;744;-42
2021/03/24 08:52:07;;;;;;;;;;;;;;;26.41;16.54;100582.50;5061023;28;824;-35
2021/03/24 08:54:51;;;;;;;;;;;;;;;26.70;17.19;100570.09;5078114;28;801;-36
2021/03/24 08:57:17;;;;;;;;;;;;;;;26.81;17.30;100584.97;5077675;28;818;-40
2021/03/24 08:59:51;;;;;;;;;;;;;;;26.62;16.26;100587.22;5084568;28;959;-39
2021/03/24 09:02:32;;;;;;;;;;;;;;;26.29;16.62;100582.09;5098149;28;795;-43
2021/03/24 09:04:57;;;;;;;;;;;;;;;26.71;16.68;100579.03;5098311;28;767;-37
2021/03/24 09:07:37;;;;;;;;;;;;;;;27.06;16.80;100586.63;5098345;28;1909;-36
2021/03/24 09:10:06;;;;;;;;;;;;;;;26.74;16.29;100584.06;5088680;28;1095;-37
2021/03/24 09:12:37;;;;;;;;;;;;;;;26.02;14.69;100577.06;5078059;28;764;-41
2021/03/24 09:15:04;;;;;;;;;;;;;;;24.90;15.59;100584.25;5077639;28;975;-43
2021/03/24 09:17:35;;;;;;;;;;;;;;;25.04;17.11;100569.31;5070277;28;1456;-40
2021/03/24 09:20:00;;;;;;;;;;;;;;;24.16;16.05;100569.84;5045869;28;1265;-40
2021/03/24 09:22:31;;;;;;;;;;;;;;;23.95;16.30;100569.34;5087501;28;1301;-43
2021/03/24 09:25:05;;;;;;;;;;;;;;;23.32;15.98;100572.31;5083639;28;1126;-40
2021/03/24 09:27:30;;;;;;;;;;;;;;;23.53;16.50;100562.19;5060858;28;1972;-39
2021/03/24 09:29:55;;;;;;;;;;;;;;;23.06;16.40;100556.28;5089428;28;962;-41
2021/03/24 09:32:24;;;;;;;;;;;;;;;23.91;16.59;100562.59;5077103;28;1226;-45
2021/03/24 09:34:55;;;;;;;;;;;;;;;23.56;16.13;100570.75;5077561;28;756;-42
2021/03/24 09:37:21;;;;;;;;;;;;;;;23.79;16.75;100567.47;5061067;28;1285;-38
2021/03/24 09:39:59;;;;;;;;;;;;;;;23.21;16.23;100560.03;5077051;28;1276;-40
2021/03/24 09:42:24;;;;;;;;;;;;;;;23.57;16.61;100563.56;5081786;28;1080;-40
2021/03/24 09:45:00;;;;;;;;;;;;;;;23.55;16.11;100573.63;5091304;28;1237;-39
2021/03/24 09:47:30;;;;;;;;;;;;;;;24.25;16.79;100568.03;5093002;28;1906;-39
2021/03/24 09:49:58;;;;;;;;;;;;;;;23.25;15.13;100565.94;5061741;28;1145;-41
2021/03/24 09:52:47;;;;;;;;;;;;;;;23.46;15.93;100562.84;5083506;28;1153;-48
2021/03/24 09:55:12;;;;;;;;;;;;;;;24.53;17.68;100565.84;5087611;28;1702;-42
2021/03/24 09:57:57;;;;;;;;;;;;;;;25.52;17.82;100555.81;5117836;28;890;-45
2021/03/24 10:00:23;;;;;;;;;;;;;;;26.25;17.58;100573.50;5116744;28;1104;-37
2021/03/24 10:02:49;;;;;;;;;;;;;;;26.58;17.63;100574.25;5117720;28;751;-36
2021/03/24 10:05:14;;;;;;;;;;;;;;;26.60;17.85;100567.66;5117537;28;838;-40
2021/03/24 10:07:41;;;;;;;;;;;;;;;26.78;17.55;100574.56;5085791;28;1914;-49
2021/03/24 10:10:19;;;;;;;;;;;;;;;27.13;17.28;100533.53;5059309;28;847;-40
2021/03/24 10:12:53;;;;;;;;;;;;;;;26.47;18.18;100556.66;5059353;28;759;-45
2021/03/24 10:15:37;;;;;;;;;;;;;;;25.71;18.92;100550.97;5076153;28;795;-45
2021/03/24 10:18:21;;;;;;;;;;;;;;;26.01;18.68;100556.50;5077173;28;780;-46
2021/03/24 10:21:01;;;;;;;;;;;;;;;25.46;19.23;100558.34;5076292;28;799;-40
2021/03/24 10:23:28;;;;;;;;;;;;;;;26.79;18.28;100565.44;5065672;28;1358;-40
2021/03/24 10:26:11;;;;;;;;;;;;;;;27.22;18.15;100575.63;5078617;28;906;-39
2021/03/24 10:28:38;;;;;;;;;;;;;;;27.33;17.94;100590.50;5096778;28;756;-42
2021/03/24 10:31:05;;;;;;;;;;;;;;;27.36;13.90;100590.09;5080850;28;1477;-40
2021/03/24 10:33:37;;;;;;;;;;;;;;;26.87;12.53;100573.47;5099343;28;763;-38
2021/03/24 10:36:05;;;;;;;;;;;;;;;26.20;15.06;100562.44;5075781;28;1661;-45
2021/03/24 10:38:46;;;;;;;;;;;;;;;26.26;16.48;100555.44;5079090;28;787;-33
2021/03/24 10:41:16;;;;;;;;;;;;;;;27.10;16.19;100569.00;5096615;28;775;-45
2021/03/24 10:44:01;;;;;;;;;;;;;;;27.56;15.77;100561.66;5075666;28;865;-32
2021/03/24 10:46:29;;;;;;;;;;;;;;;27.65;15.89;100570.47;5077414;28;1915;-45
2021/03/24 10:48:58;;;;;;;;;;;;;;;27.86;16.11;100569.72;5078705;28;752;-33
2021/03/24 10:51:41;;;;;;;;;;;;;;;27.93;16.24;100554.38;5091360;28;938;-33
2021/03/24 10:54:39;;;;;;;;;;;;;;;26.98;17.62;100563.19;5076371;28;796;-45
2021/03/24 10:57:23;;;;;;;;;;;;;;;27.23;17.50;100562.94;5042438;28;1226;-34
2021/03/24 10:59:49;;;;;;;;;;;;;;;27.57;17.44;100557.94;5078503;28;764;-46
2021/03/24 11:02:14;;;;;;;;;;;;;;;27.61;17.55;100559.25;5062513;28;760;-41
2021/03/24 11:04:48;;;;;;;;;;;;;;;27.66;17.43;100545.97;5079870;28;903;-37
2021/03/24 11:07:26;;;;;;;;;;;;;;;27.87;17.46;100556.00;5074670;28;1909;-46
2021/03/24 11:09:53;;;;;;;;;;;;;;;27.97;17.39;100554.84;5100724;28;752;-34
2021/03/24 11:12:20;;;;;;;;;;;;;;;26.76;15.63;100550.44;5100003;28;855;-37
2021/03/24 11:14:59;;;;;;;;;;;;;;;25.96;16.06;100553.50;5100483;28;839;-46
2021/03/24 11:17:26;;;;;;;;;;;;;;;27.13;17.88;100545.16;5100521;28;854;-36
2021/03/24 11:19:57;;;;;;;;;;;;;;;27.30;17.19;100568.41;5100291;28;752;-34
2021/03/24 11:22:41;;;;;;;;;;;;;;;27.63;17.61;100566.13;5068913;28;1014;-38
2021/03/24 11:25:21;;;;;;;;;;;;;;;27.65;17.65;100562.38;5079928;28;755;-35
2021/03/24 11:27:47;;;;;;;;;;;;;;;27.97;17.20;100571.06;5061991;28;1909;-44
2021/03/24 11:30:22;;;;;;;;;;;;;;;27.93;17.47;100576.00;5079531;28;881;-34
2021/03/24 11:32:50;;;;;;;;;;;;;;;27.80;17.67;100584.81;5098142;28;1247;-43
2021/03/24 11:35:31;;;;;;;;;;;;;;;26.69;18.78;100579.22;5099698;28;770;-47
2021/03/24 11:38:16;;;;;;;;;;;;;;;26.41;19.46;100574.41;5099806;28;970;-40
2021/03/24 11:40:45;;;;;;;;;;;;;;;27.70;18.12;100570.78;5088948;28;1396;-36
2021/03/24 11:43:18;;;;;;;;;;;;;;;27.97;17.98;100574.59;5081348;28;799;-36
2021/03/24 11:45:45;;;;;;;;;;;;;;;28.14;17.56;100579.75;5081986;28;731;-36
2021/03/24 11:48:13;;;;;;;;;;;;;;;28.24;17.89;100582.13;5099755;28;1914;-36
2021/03/24 11:50:58;;;;;;;;;;;;;;;28.38;17.80;100576.84;5099046;28;836;-43
2021/03/24 11:53:23;;;;;;;;;;;;;;;27.37;18.67;100589.09;5079360;28;827;-36
2021/03/24 11:55:48;;;;;;;;;;;;;;;26.81;19.12;100586.84;5079466;28;870;-36
2021/03/24 11:58:29;;;;;;;;;;;;;;;27.19;18.84;100597.59;5079408;28;839;-37
2021/03/24 12:00:55;;;;;;;;;;;;;;;27.98;17.89;100587.09;5079640;28;811;-37
2021/03/24 12:03:37;;;;;;;;;;;;;;;28.10;17.79;100584.69;5077719;28;853;-37
2021/03/24 12:06:26;;;;;;;;;;;;;;;27.91;17.37;100579.94;5079542;28;998;-34
2021/03/24 12:09:03;;;;;;;;;;;;;;;27.62;17.89;100575.25;5070700;28;1160;-43
2021/03/24 12:11:29;;;;;;;;;;;;;;;27.56;17.63;100577.88;5098203;28;748;-48
2021/03/24 12:14:13;;;;;;;;;;;;;;;27.61;17.43;100575.44;5099038;28;819;-35
2021/03/24 12:16:42;;;;;;;;;;;;;;;27.54;17.33;100574.53;5099738;28;739;-33
2021/03/24 12:19:22;;;;;;;;;;;;;;;27.63;17.15;100578.78;5098733;28;735;-36
2021/03/24 12:21:51;;;;;;;;;;;;;;;27.37;16.53;100572.91;5090262;28;918;-41
2021/03/24 12:24:22;;;;;;;;;;;;;;;27.51;16.69;100581.97;5060911;28;832;-36
2021/03/24 12:26:47;;;;;;;;;;;;;;;27.43;16.87;100581.25;5060674;28;1962;-39
2021/03/24 12:29:12;;;;;;;;;;;;;;;27.36;16.40;100573.09;5078981;28;827;-40
2021/03/24 12:32:04;;;;;;;;;;;;;;;27.29;16.91;100573.00;5086859;28;1251;-34
2021/03/24 12:34:30;;;;;;;;;;;;;;;27.42;16.36;100577.72;5093779;28;1286;-40
2021/03/24 12:36:59;;;;;;;;;;;;;;;27.54;16.88;100585.34;5088837;28;1265;-38
2021/03/24 12:39:25;;;;;;;;;;;;;;;27.68;16.72;100586.31;5078605;28;771;-40
2021/03/24 12:41:50;;;;;;;;;;;;;;;27.53;16.34;100586.38;5078591;28;891;-36
2021/03/24 12:44:17;;;;;;;;;;;;;;;27.34;16.33;100586.75;5077889;28;763;-37
2021/03/24 12:46:49;;;;;;;;;;;;;;;27.51;16.76;100581.13;5078435;28;1971;-37
2021/03/24 12:49:25;;;;;;;;;;;;;;;27.44;16.53;100591.88;5077825;28;823;-34
2021/03/24 12:51:57;;;;;;;;;;;;;;;27.87;16.63;100587.59;5090967;28;1562;-34
2021/03/24 12:54:24;;;;;;;;;;;;;;;27.75;15.89;100598.06;5060439;28;797;-33
2021/03/24 12:57:07;;;;;;;;;;;;;;;27.38;15.24;100582.66;5077921;28;796;-33
2021/03/24 12:59:51;;;;;;;;;;;;;;;26.84;17.92;100590.00;5078816;28;768;-32
2021/03/24 13:02:19;;;;;;;;;;;;;;;26.20;15.29;100585.84;5078333;28;760;-33
2021/03/24 13:04:50;;;;;;;;;;;;;;;26.67;16.78;100589.34;5077534;28;822;-36
2021/03/24 13:07:24;;;;;;;;;;;;;;;26.84;16.94;100584.59;5083345;28;1909;-40
2021/03/24 13:10:02;;;;;;;;;;;;;;;27.29;16.30;100586.50;5093229;28;831;-38
2021/03/24 13:12:31;;;;;;;;;;;;;;;27.28;15.95;100589.41;5097405;28;860;-43